sensor_id;sensor_type;location;lat;lon;timestamp;pressure;altitude;pressure_sealevel;temperature;humidity
17615;BME280;8926;49.720;6.576;2023-12-20T00:01:16;99832.75;;;6.69;100.00
17615;BME280;8926;49.720;6.576;2023-12-20T00:03:41;99839.63;;;6.70;100.00
17615;BME280;8926;49.720;6.576;2023-12-20T00:06:07;99836.13;;;6.71;100.00
17615;BME280;8926;49.720;6.576;2023-12-20T00:08:32;99836.38;;;6.65;100.00
17615;BME280;8926;49.720;6.576;2023-12-20T00:10:57;99836.38;;;6.65;100.00
17615;BME280;8926;49.720;6.576;2023-12-20T00:13:23;99841.56;;;6.65;100.00
17615;BME280;8926;49.720;6.576;2023-12-20T00:15:48;99839.81;;;6.66;100.00
17615;BME280;8926;49.720;6.576;2023-12-20T00:18:13;99837.16;;;6.67;100.00
17615;BME280;8926;49.720;6.576;2023-12-20T00:20:38;99823.22;;;6.70;100.00
17615;BME280;8926;49.720;6.576;2023-12-20T00:23:04;99832.75;;;6.69;100.00
17615;BME280;8926;49.720;6.576;2023-12-20T00:25:29;99835.34;;;6.69;100.00
17615;BME280;8926;49.720;6.576;2023-12-20T00:27:54;99829.25;;;6.70;100.00
17615;BME280;8926;49.720;6.576;2023-12-20T00:30:20;99830.94;;;6.71;100.00
17615;BME280;8926;49.720;6.576;2023-12-20T00:32:45;99832.63;;;6.72;100.00
17615;BME280;8926;49.720;6.576;2023-12-20T00:35:13;99828.41;;;6.70;100.00
17615;BME280;8926;49.720;6.576;2023-12-20T00:37:39;99831.06;;;6.68;100.00
17615;BME280;8926;49.720;6.576;2023-12-20T00:40:05;99820.56;;;6.71;100.00
17615;BME280;8926;49.720;6.576;2023-12-20T00:42:30;99822.25;;;6.72;100.00
17615;BME280;8926;49.720;6.576;2023-12-20T00:44:55;99821.34;;;6.73;100.00
17615;BME280;8926;49.720;6.576;2023-12-20T00:47:21;99820.56;;;6.71;100.00
17615;BME280;8926;49.720;6.576;2023-12-20T00:49:47;99826.78;;;6.67;100.00
17615;BME280;8926;49.720;6.576;2023-12-20T00:52:12;99827.63;;;6.68;100.00
17615;BME280;8926;49.720;6.576;2023-12-20T00:54:37;99838.00;;;6.68;100.00
17615;BME280;8926;49.720;6.576;2023-12-20T00:57:03;99831.06;;;6.68;100.00
17615;BME280;8926;49.720;6.576;2023-12-20T00:59:28;99827.56;;;6.69;100.00
17615;BME280;8926;49.720;6.576;2023-12-20T01:01:53;99834.44;;;6.70;100.00
17615;BME280;8926;49.720;6.576;2023-12-20T01:04:19;99837.94;;;6.69;100.00
17615;BME280;8926;49.720;6.576;2023-12-20T01:06:44;99830.22;;;6.68;100.00
17615;BME280;8926;49.720;6.576;2023-12-20T01:09:09;99829.38;;;6.67;100.00
17615;BME280;8926;49.720;6.576;2023-12-20T01:11:35;99828.47;;;6.68;100.00
17615;BME280;8926;49.720;6.576;2023-12-20T01:14:00;99818.06;;;6.68;100.00
17615;BME280;8926;49.720;6.576;2023-12-20T01:16:25;99822.38;;;6.69;100.00
17615;BME280;8926;49.720;6.576;2023-12-20T01:18:50;99834.44;;;6.70;100.00
17615;BME280;8926;49.720;6.576;2023-12-20T01:21:16;99820.66;;;6.68;100.00
17615;BME280;8926;49.720;6.576;2023-12-20T01:23:41;99811.97;;;6.69;100.00
17615;BME280;8926;49.720;6.576;2023-12-20T01:26:06;99821.53;;;6.69;100.00
17615;BME280;8926;49.720;6.576;2023-12-20T01:28:32;99824.97;;;6.69;100.00
17615;BME280;8926;49.720;6.576;2023-12-20T01:30:57;99820.66;;;6.68;100.00
17615;BME280;8926;49.720;6.576;2023-12-20T01:33:23;99831.16;;;6.65;100.00
17615;BME280;8926;49.720;6.576;2023-12-20T01:35:48;99825.75;;;6.71;100.00
17615;BME280;8926;49.720;6.576;2023-12-20T01:38:14;99822.25;;;6.72;100.00
17615;BME280;8926;49.720;6.576;2023-12-20T01:40:39;99824.91;;;6.71;100.00
17615;BME280;8926;49.720;6.576;2023-12-20T01:43:07;99839.63;;;6.70;100.00
17615;BME280;8926;49.720;6.576;2023-12-20T01:45:37;99839.56;;;6.72;100.00
17615;BME280;8926;49.720;6.576;2023-12-20T01:48:03;99840.34;;;6.74;100.00
17615;BME280;8926;49.720;6.576;2023-12-20T01:50:31;99835.16;;;6.74;100.00
17615;BME280;8926;49.720;6.576;2023-12-20T01:52:58;99828.28;;;6.73;100.00
17615;BME280;8926;49.720;6.576;2023-12-20T01:55:25;99830.88;;;6.73;100.00
17615;BME280;8926;49.720;6.576;2023-12-20T01:57:51;99829.13;;;6.73;100.00
17615;BME280;8926;49.720;6.576;2023-12-20T02:00:17;99832.63;;;6.72;100.00
17615;BME280;8926;49.720;6.576;2023-12-20T02:02:43;99840.41;;;6.72;100.00
17615;BME280;8926;49.720;6.576;2023-12-20T02:05:10;99839.50;;;6.73;100.00
17615;BME280;8926;49.720;6.576;2023-12-20T02:07:36;99845.56;;;6.74;100.00
17615;BME280;8926;49.720;6.576;2023-12-20T02:10:02;99844.66;;;6.75;100.00
17615;BME280;8926;49.720;6.576;2023-12-20T02:12:27;99848.09;;;6.75;100.00
17615;BME280;8926;49.720;6.576;2023-12-20T02:14:52;99859.28;;;6.76;100.00
17615;BME280;8926;49.720;6.576;2023-12-20T02:17:19;99862.72;;;6.76;100.00
17615;BME280;8926;49.720;6.576;2023-12-20T02:19:44;99860.81;;;6.81;100.00
17615;BME280;8926;49.720;6.576;2023-12-20T02:22:13;99865.09;;;6.82;100.00
17615;BME280;8926;49.720;6.576;2023-12-20T02:24:39;99874.47;;;6.87;100.00
17615;BME280;8926;49.720;6.576;2023-12-20T02:27:06;99868.47;;;6.85;100.00
17615;BME280;8926;49.720;6.576;2023-12-20T02:29:35;99864.97;;;6.86;100.00
17615;BME280;8926;49.720;6.576;2023-12-20T02:32:01;99859.66;;;6.89;100.00
17615;BME280;8926;49.720;6.576;2023-12-20T02:34:26;99856.16;;;6.90;100.00
17615;BME280;8926;49.720;6.576;2023-12-20T02:36:51;99860.50;;;6.89;100.00
17615;BME280;8926;49.720;6.576;2023-12-20T02:39:19;99859.66;;;6.89;100.00
17615;BME280;8926;49.720;6.576;2023-12-20T02:41:45;99863.94;;;6.90;100.00
17615;BME280;8926;49.720;6.576;2023-12-20T02:44:10;99866.66;;;6.87;100.00
17615;BME280;8926;49.720;6.576;2023-12-20T02:46:35;99861.47;;;6.87;100.00
17615;BME280;8926;49.720;6.576;2023-12-20T02:49:01;99867.56;;;6.86;100.00
17615;BME280;8926;49.720;6.576;2023-12-20T02:51:26;99869.19;;;6.88;100.00
17615;BME280;8926;49.720;6.576;2023-12-20T02:53:51;99859.72;;;6.87;100.00
17615;BME280;8926;49.720;6.576;2023-12-20T02:56:16;99871.06;;;6.85;100.00
17615;BME280;8926;49.720;6.576;2023-12-20T02:58:42;99875.47;;;6.82;100.00
17615;BME280;8926;49.720;6.576;2023-12-20T03:01:07;99887.56;;;6.84;100.00
17615;BME280;8926;49.720;6.576;2023-12-20T03:03:32;99889.38;;;6.81;100.00
17615;BME280;8926;49.720;6.576;2023-12-20T03:05:58;99888.50;;;6.81;100.00
17615;BME280;8926;49.720;6.576;2023-12-20T03:08:23;99903.38;;;6.77;100.00
17615;BME280;8926;49.720;6.576;2023-12-20T03:10:48;99906.00;;;6.76;100.00
17615;BME280;8926;49.720;6.576;2023-12-20T03:13:14;99903.50;;;6.74;100.00
17615;BME280;8926;49.720;6.576;2023-12-20T03:15:39;99899.34;;;6.70;100.00
17615;BME280;8926;49.720;6.576;2023-12-20T03:18:05;99908.09;;;6.68;100.00
17615;BME280;8926;49.720;6.576;2023-12-20T03:20:30;99931.63;;;6.63;100.00
17615;BME280;8926;49.720;6.576;2023-12-20T03:22:59;99921.34;;;6.60;100.00
17615;BME280;8926;49.720;6.576;2023-12-20T03:25:24;99926.69;;;6.56;100.00
17615;BME280;8926;49.720;6.576;2023-12-20T03:27:49;99931.94;;;6.54;100.00
17615;BME280;8926;49.720;6.576;2023-12-20T03:30:15;99940.88;;;6.47;100.00
17615;BME280;8926;49.720;6.576;2023-12-20T03:32:40;99945.34;;;6.43;100.00
17615;BME280;8926;49.720;6.576;2023-12-20T03:35:06;99942.91;;;6.39;100.00
17615;BME280;8926;49.720;6.576;2023-12-20T03:37:31;99947.31;;;6.37;100.00
17615;BME280;8926;49.720;6.576;2023-12-20T03:39:56;99945.56;;;6.37;100.00
17615;BME280;8926;49.720;6.576;2023-12-20T03:42:21;99951.81;;;6.32;100.00
17615;BME280;8926;49.720;6.576;2023-12-20T03:44:47;99958.78;;;6.30;100.00
17615;BME280;8926;49.720;6.576;2023-12-20T03:47:12;99959.00;;;6.24;100.00
17615;BME280;8926;49.720;6.576;2023-12-20T03:49:37;99954.00;;;6.19;100.00
17615;BME280;8926;49.720;6.576;2023-12-20T03:52:04;99963.63;;;6.16;100.00
17615;BME280;8926;49.720;6.576;2023-12-20T03:54:29;99965.50;;;6.12;100.00
17615;BME280;8926;49.720;6.576;2023-12-20T03:56:54;99964.75;;;6.08;100.00
17615;BME280;8926;49.720;6.576;2023-12-20T03:59:20;99978.72;;;6.04;100.00
17615;BME280;8926;49.720;6.576;2023-12-20T04:01:45;99973.63;;;6.01;100.00
17615;BME280;8926;49.720;6.576;2023-12-20T04:04:11;99969.63;;;5.93;99.46
17615;BME280;8926;49.720;6.576;2023-12-20T04:06:36;99973.97;;;5.92;99.96
17615;BME280;8926;49.720;6.576;2023-12-20T04:09:02;99976.78;;;5.85;98.85
17615;BME280;8926;49.720;6.576;2023-12-20T04:11:28;99970.94;;;5.78;98.45
17615;BME280;8926;49.720;6.576;2023-12-20T04:13:53;99970.25;;;5.73;98.64
17615;BME280;8926;49.720;6.576;2023-12-20T04:16:18;99978.81;;;5.75;98.87
17615;BME280;8926;49.720;6.576;2023-12-20T04:18:43;99974.72;;;5.69;97.98
17615;BME280;8926;49.720;6.576;2023-12-20T04:21:09;99963.53;;;5.67;98.15
17615;BME280;8926;49.720;6.576;2023-12-20T04:23:34;99968.72;;;5.67;97.80
17615;BME280;8926;49.720;6.576;2023-12-20T04:25:59;99979.00;;;5.70;98.31
17615;BME280;8926;49.720;6.576;2023-12-20T04:28:25;99991.88;;;5.72;98.38
17615;BME280;8926;49.720;6.576;2023-12-20T04:30:50;99974.53;;;5.74;97.80
17615;BME280;8926;49.720;6.576;2023-12-20T04:33:15;99978.03;;;5.73;96.87
17615;BME280;8926;49.720;6.576;2023-12-20T04:35:41;99974.53;;;5.74;97.08
17615;BME280;8926;49.720;6.576;2023-12-20T04:38:07;99980.50;;;5.76;96.72
17615;BME280;8926;49.720;6.576;2023-12-20T04:40:33;99983.84;;;5.79;97.21
17615;BME280;8926;49.720;6.576;2023-12-20T04:42:58;99987.25;;;5.82;96.61
17615;BME280;8926;49.720;6.576;2023-12-20T04:45:23;99989.69;;;5.86;96.76
17615;BME280;8926;49.720;6.576;2023-12-20T04:47:50;99984.59;;;5.83;96.04
17615;BME280;8926;49.720;6.576;2023-12-20T04:50:15;99988.94;;;5.83;96.45
17615;BME280;8926;49.720;6.576;2023-12-20T04:52:41;99996.56;;;5.87;96.49
17615;BME280;8926;49.720;6.576;2023-12-20T04:55:07;99999.16;;;5.87;95.71
17615;BME280;8926;49.720;6.576;2023-12-20T04:57:32;99998.25;;;5.88;95.35
17615;BME280;8926;49.720;6.576;2023-12-20T04:59:58;99994.88;;;5.86;95.83
17615;BME280;8926;49.720;6.576;2023-12-20T05:02:23;100010.38;;;5.89;95.94
17615;BME280;8926;49.720;6.576;2023-12-20T05:04:48;100013.81;;;5.88;95.73
17615;BME280;8926;49.720;6.576;2023-12-20T05:07:13;100017.25;;;5.90;95.97
17615;BME280;8926;49.720;6.576;2023-12-20T05:09:39;100008.69;;;5.87;95.21
17615;BME280;8926;49.720;6.576;2023-12-20T05:12:04;100012.22;;;5.84;95.90
17615;BME280;8926;49.720;6.576;2023-12-20T05:14:30;100010.44;;;5.86;96.73
17615;BME280;8926;49.720;6.576;2023-12-20T05:16:56;100017.31;;;5.87;95.95
17615;BME280;8926;49.720;6.576;2023-12-20T05:19:22;100020.78;;;5.86;96.15
17615;BME280;8926;49.720;6.576;2023-12-20T05:21:47;100020.84;;;5.85;95.92
17615;BME280;8926;49.720;6.576;2023-12-20T05:24:13;100013.13;;;5.83;96.04
17615;BME280;8926;49.720;6.576;2023-12-20T05:26:38;100011.44;;;5.82;96.84
17615;BME280;8926;49.720;6.576;2023-12-20T05:29:03;100022.69;;;5.81;96.29
17615;BME280;8926;49.720;6.576;2023-12-20T05:31:28;100013.22;;;5.80;96.61
17615;BME280;8926;49.720;6.576;2023-12-20T05:33:54;100017.50;;;5.81;96.57
17615;BME280;8926;49.720;6.576;2023-12-20T05:36:19;100032.13;;;5.84;97.13
17615;BME280;8926;49.720;6.576;2023-12-20T05:38:44;100029.56;;;5.82;96.63
17615;BME280;8926;49.720;6.576;2023-12-20T05:41:10;100027.06;;;5.79;96.34
17615;BME280;8926;49.720;6.576;2023-12-20T05:43:35;100036.63;;;5.77;97.06
17615;BME280;8926;49.720;6.576;2023-12-20T05:46:00;100028.88;;;5.77;96.66
17615;BME280;8926;49.720;6.576;2023-12-20T05:48:26;100043.53;;;5.78;96.66
17615;BME280;8926;49.720;6.576;2023-12-20T05:50:51;100041.81;;;5.77;96.37
17615;BME280;8926;49.720;6.576;2023-12-20T05:53:16;100039.28;;;5.75;96.55
17615;BME280;8926;49.720;6.576;2023-12-20T05:55:41;100041.03;;;5.75;96.30
17615;BME280;8926;49.720;6.576;2023-12-20T05:58:07;100041.19;;;5.70;96.55
17615;BME280;8926;49.720;6.576;2023-12-20T06:00:32;100038.44;;;5.75;96.36
17615;BME280;8926;49.720;6.576;2023-12-20T06:02:57;100036.75;;;5.74;96.38
17615;BME280;8926;49.720;6.576;2023-12-20T06:05:22;100040.22;;;5.73;96.75
17615;BME280;8926;49.720;6.576;2023-12-20T06:07:48;100038.53;;;5.72;97.01
17615;BME280;8926;49.720;6.576;2023-12-20T06:10:15;100041.06;;;5.73;97.48
17615;BME280;8926;49.720;6.576;2023-12-20T06:12:40;100047.09;;;5.74;97.63
17615;BME280;8926;49.720;6.576;2023-12-20T06:15:06;100057.47;;;5.74;97.36
17615;BME280;8926;49.720;6.576;2023-12-20T06:17:31;100066.28;;;5.70;97.23
17615;BME280;8926;49.720;6.576;2023-12-20T06:19:57;100061.03;;;5.71;97.46
17615;BME280;8926;49.720;6.576;2023-12-20T06:22:22;100066.28;;;5.70;97.29
17615;BME280;8926;49.720;6.576;2023-12-20T06:24:47;100059.38;;;5.69;97.59
17615;BME280;8926;49.720;6.576;2023-12-20T06:27:13;100049.81;;;5.71;97.92
17615;BME280;8926;49.720;6.576;2023-12-20T06:29:38;100056.69;;;5.72;97.80
17615;BME280;8926;49.720;6.576;2023-12-20T06:32:04;100058.28;;;5.76;98.13
17615;BME280;8926;49.720;6.576;2023-12-20T06:34:29;100052.28;;;5.74;97.90
17615;BME280;8926;49.720;6.576;2023-12-20T06:36:54;100050.69;;;5.71;97.98
17615;BME280;8926;49.720;6.576;2023-12-20T06:39:20;100064.44;;;5.72;98.32
17615;BME280;8926;49.720;6.576;2023-12-20T06:41:45;100054.22;;;5.69;98.67
17615;BME280;8926;49.720;6.576;2023-12-20T06:44:10;100052.41;;;5.71;98.74
17615;BME280;8926;49.720;6.576;2023-12-20T06:46:36;100045.63;;;5.67;98.61
17615;BME280;8926;49.720;6.576;2023-12-20T06:49:01;100061.19;;;5.67;97.91
17615;BME280;8926;49.720;6.576;2023-12-20T06:51:26;100061.28;;;5.64;98.18
17615;BME280;8926;49.720;6.576;2023-12-20T06:53:52;100056.94;;;5.64;98.64
17615;BME280;8926;49.720;6.576;2023-12-20T06:56:17;100052.59;;;5.65;98.79
17615;BME280;8926;49.720;6.576;2023-12-20T06:58:43;100052.50;;;5.68;98.89
17615;BME280;8926;49.720;6.576;2023-12-20T07:01:15;100059.38;;;5.69;99.20
17615;BME280;8926;49.720;6.576;2023-12-20T07:03:41;100066.28;;;5.70;98.47
17615;BME280;8926;49.720;6.576;2023-12-20T07:06:06;100062.78;;;5.71;98.27
17615;BME280;8926;49.720;6.576;2023-12-20T07:08:32;100057.53;;;5.72;98.71
17615;BME280;8926;49.720;6.576;2023-12-20T07:10:57;100069.53;;;5.75;98.85
17615;BME280;8926;49.720;6.576;2023-12-20T07:13:23;100053.91;;;5.78;99.45
17615;BME280;8926;49.720;6.576;2023-12-20T07:15:49;100062.47;;;5.80;99.41
17615;BME280;8926;49.720;6.576;2023-12-20T07:18:14;100071.03;;;5.82;99.34
17615;BME280;8926;49.720;6.576;2023-12-20T07:20:39;100076.31;;;5.79;99.22
17615;BME280;8926;49.720;6.576;2023-12-20T07:23:04;100077.94;;;5.83;99.13
17615;BME280;8926;49.720;6.576;2023-12-20T07:25:30;100078.72;;;5.85;98.85
17615;BME280;8926;49.720;6.576;2023-12-20T07:28:00;100070.94;;;5.85;99.18
17615;BME280;8926;49.720;6.576;2023-12-20T07:30:25;100077.94;;;5.83;98.14
17615;BME280;8926;49.720;6.576;2023-12-20T07:32:51;100087.41;;;5.84;97.79
17615;BME280;8926;49.720;6.576;2023-12-20T07:35:17;100083.97;;;5.84;97.93
17615;BME280;8926;49.720;6.576;2023-12-20T07:37:42;100075.19;;;5.88;98.53
17615;BME280;8926;49.720;6.576;2023-12-20T07:40:08;100084.66;;;5.90;98.65
17615;BME280;8926;49.720;6.576;2023-12-20T07:42:33;100079.38;;;5.93;98.81
17615;BME280;8926;49.720;6.576;2023-12-20T07:44:59;100072.41;;;5.95;98.32
17615;BME280;8926;49.720;6.576;2023-12-20T07:47:24;100082.63;;;5.98;98.13
17615;BME280;8926;49.720;6.576;2023-12-20T07:49:50;100089.66;;;5.96;97.77
17615;BME280;8926;49.720;6.576;2023-12-20T07:52:17;100092.28;;;5.95;97.10
17615;BME280;8926;49.720;6.576;2023-12-20T07:54:43;100100.91;;;5.95;97.78
17615;BME280;8926;49.720;6.576;2023-12-20T07:57:08;100087.81;;;5.98;98.41
17615;BME280;8926;49.720;6.576;2023-12-20T07:59:34;100088.56;;;6.02;97.56
17615;BME280;8926;49.720;6.576;2023-12-20T08:01:59;100089.53;;;5.99;97.30
17615;BME280;8926;49.720;6.576;2023-12-20T08:04:24;100100.78;;;5.98;96.90
17615;BME280;8926;49.720;6.576;2023-12-20T08:06:50;100093.72;;;6.03;97.30
17615;BME280;8926;49.720;6.576;2023-12-20T08:09:15;100094.63;;;6.02;97.40
17615;BME280;8926;49.720;6.576;2023-12-20T08:11:47;100106.69;;;6.03;97.73
17615;BME280;8926;49.720;6.576;2023-12-20T08:14:12;100098.00;;;6.04;97.28
17615;BME280;8926;49.720;6.576;2023-12-20T08:16:38;100099.69;;;6.05;97.41
17615;BME280;8926;49.720;6.576;2023-12-20T08:19:03;100099.59;;;6.08;97.92
17615;BME280;8926;49.720;6.576;2023-12-20T08:21:28;100099.59;;;6.08;97.13
17615;BME280;8926;49.720;6.576;2023-12-20T08:23:53;100092.63;;;6.10;97.49
17615;BME280;8926;49.720;6.576;2023-12-20T08:26:19;100098.63;;;6.12;97.58
17615;BME280;8926;49.720;6.576;2023-12-20T08:28:48;100096.97;;;6.10;97.26
17615;BME280;8926;49.720;6.576;2023-12-20T08:31:17;100095.22;;;6.10;97.59
17615;BME280;8926;49.720;6.576;2023-12-20T08:33:44;100091.63;;;6.15;97.57
17615;BME280;8926;49.720;6.576;2023-12-20T08:36:10;100088.09;;;6.17;97.35
17615;BME280;8926;49.720;6.576;2023-12-20T08:38:36;100086.28;;;6.19;97.00
17615;BME280;8926;49.720;6.576;2023-12-20T08:41:01;100096.50;;;6.24;96.80
17615;BME280;8926;49.720;6.576;2023-12-20T08:43:28;100095.72;;;6.22;96.16
17615;BME280;8926;49.720;6.576;2023-12-20T08:45:53;100092.44;;;6.17;96.01
17615;BME280;8926;49.720;6.576;2023-12-20T08:48:19;100097.53;;;6.20;95.78
17615;BME280;8926;49.720;6.576;2023-12-20T08:50:44;100114.66;;;6.24;95.64
17615;BME280;8926;49.720;6.576;2023-12-20T08:53:09;100100.91;;;6.22;96.62
17615;BME280;8926;49.720;6.576;2023-12-20T08:55:35;100111.16;;;6.25;95.85
17615;BME280;8926;49.720;6.576;2023-12-20T08:58:00;100114.78;;;6.21;96.01
17615;BME280;8926;49.720;6.576;2023-12-20T09:00:25;100106.94;;;6.22;96.47
17615;BME280;8926;49.720;6.576;2023-12-20T09:02:53;100097.28;;;6.26;96.91
17615;BME280;8926;49.720;6.576;2023-12-20T09:05:18;100107.56;;;6.29;96.69
17615;BME280;8926;49.720;6.576;2023-12-20T09:07:44;100098.69;;;6.36;96.84
17615;BME280;8926;49.720;6.576;2023-12-20T09:10:09;100086.50;;;6.38;96.54
17615;BME280;8926;49.720;6.576;2023-12-20T09:12:34;100095.75;;;6.46;96.15
17615;BME280;8926;49.720;6.576;2023-12-20T09:15:00;100096.78;;;6.41;95.35
17615;BME280;8926;49.720;6.576;2023-12-20T09:17:27;100104.53;;;6.42;95.37
17615;BME280;8926;49.720;6.576;2023-12-20T09:19:53;100106.97;;;6.47;95.86
17615;BME280;8926;49.720;6.576;2023-12-20T09:22:19;100112.03;;;6.50;94.77
17615;BME280;8926;49.720;6.576;2023-12-20T09:24:44;100115.31;;;6.55;94.77
17615;BME280;8926;49.720;6.576;2023-12-20T09:27:10;100111.81;;;6.56;95.29
17615;BME280;8926;49.720;6.576;2023-12-20T09:29:35;100114.31;;;6.59;95.04
17615;BME280;8926;49.720;6.576;2023-12-20T09:32:01;100106.53;;;6.59;94.56
17615;BME280;8926;49.720;6.576;2023-12-20T09:34:26;100111.63;;;6.62;94.72
17615;BME280;8926;49.720;6.576;2023-12-20T09:36:52;100104.72;;;6.61;94.68
17615;BME280;8926;49.720;6.576;2023-12-20T09:39:18;100095.94;;;6.65;94.70
17615;BME280;8926;49.720;6.576;2023-12-20T09:42:03;100101.03;;;6.68;93.92
17615;BME280;8926;49.720;6.576;2023-12-20T09:44:30;100094.84;;;6.72;94.34
17615;BME280;8926;49.720;6.576;2023-12-20T09:46:56;100104.97;;;6.78;93.79
17615;BME280;8926;49.720;6.576;2023-12-20T09:49:22;100105.88;;;6.77;93.86
17615;BME280;8926;49.720;6.576;2023-12-20T09:51:48;100108.53;;;6.76;93.08
17615;BME280;8926;49.720;6.576;2023-12-20T09:54:16;100108.47;;;6.77;93.28
17615;BME280;8926;49.720;6.576;2023-12-20T09:56:42;100109.16;;;6.82;93.81
17615;BME280;8926;49.720;6.576;2023-12-20T09:59:07;100104.66;;;6.88;92.81
17615;BME280;8926;49.720;6.576;2023-12-20T10:01:33;100101.09;;;6.90;92.63
17615;BME280;8926;49.720;6.576;2023-12-20T10:04:00;100093.06;;;6.98;91.71
17615;BME280;8926;49.720;6.576;2023-12-20T10:06:26;100094.59;;;7.02;91.05
17615;BME280;8926;49.720;6.576;2023-12-20T10:08:51;100091.84;;;7.75;88.04
17615;BME280;8926;49.720;6.576;2023-12-20T10:11:18;100086.88;;;7.69;88.08
17615;BME280;8926;49.720;6.576;2023-12-20T10:13:47;100096.94;;;7.55;87.72
17615;BME280;8926;49.720;6.576;2023-12-20T10:16:13;100097.09;;;7.52;87.17
17615;BME280;8926;49.720;6.576;2023-12-20T10:18:38;100089.63;;;7.42;88.43
17615;BME280;8926;49.720;6.576;2023-12-20T10:21:04;100077.03;;;7.32;87.34
17615;BME280;8926;49.720;6.576;2023-12-20T10:23:30;100074.63;;;7.27;87.88
17615;BME280;8926;49.720;6.576;2023-12-20T10:25:56;100073.28;;;7.17;88.24
17615;BME280;8926;49.720;6.576;2023-12-20T10:28:23;100075.66;;;7.23;88.19
17615;BME280;8926;49.720;6.576;2023-12-20T10:30:52;100085.25;;;7.21;88.43
17615;BME280;8926;49.720;6.576;2023-12-20T10:33:28;100081.13;;;7.15;88.47
17615;BME280;8926;49.720;6.576;2023-12-20T10:35:54;100078.59;;;7.14;88.58
17615;BME280;8926;49.720;6.576;2023-12-20T10:38:20;100078.69;;;7.11;88.56
17615;BME280;8926;49.720;6.576;2023-12-20T10:40:46;100082.31;;;7.07;87.87
17615;BME280;8926;49.720;6.576;2023-12-20T10:43:12;100080.59;;;7.06;88.52
17615;BME280;8926;49.720;6.576;2023-12-20T10:45:37;100081.72;;;7.00;88.38
17615;BME280;8926;49.720;6.576;2023-12-20T10:48:04;100079.16;;;6.99;88.38
17615;BME280;8926;49.720;6.576;2023-12-20T10:50:30;100082.03;;;6.91;88.58
17615;BME280;8926;49.720;6.576;2023-12-20T10:52:56;100087.97;;;6.95;89.46
17615;BME280;8926;49.720;6.576;2023-12-20T10:55:23;100079.28;;;6.96;89.64
17615;BME280;8926;49.720;6.576;2023-12-20T10:57:53;100075.13;;;6.90;88.25
17615;BME280;8926;49.720;6.576;2023-12-20T11:00:21;100077.63;;;6.93;88.91
17615;BME280;8926;49.720;6.576;2023-12-20T11:02:49;100074.88;;;6.98;88.47
17615;BME280;8926;49.720;6.576;2023-12-20T11:05:40;100067.94;;;6.98;88.38
17615;BME280;8926;49.720;6.576;2023-12-20T11:08:22;100069.00;;;6.93;87.18
17615;BME280;8926;49.720;6.576;2023-12-20T11:11:04;100063.91;;;6.90;87.08
17615;BME280;8926;49.720;6.576;2023-12-20T11:16:17;100061.19;;;6.93;86.82
17615;BME280;8926;49.720;6.576;2023-12-20T11:18:44;100048.22;;;6.93;86.75
17615;BME280;8926;49.720;6.576;2023-12-20T11:21:10;100053.31;;;6.96;87.00
17615;BME280;8926;49.720;6.576;2023-12-20T11:23:35;100044.59;;;6.97;86.31
17615;BME280;8926;49.720;6.576;2023-12-20T11:26:02;100044.34;;;7.03;86.04
17615;BME280;8926;49.720;6.576;2023-12-20T11:28:28;100041.59;;;7.07;86.57
17615;BME280;8926;49.720;6.576;2023-12-20T11:30:56;100039.63;;;7.14;86.07
17615;BME280;8926;49.720;6.576;2023-12-20T11:33:26;100028.31;;;7.15;86.51
17615;BME280;8926;49.720;6.576;2023-12-20T11:35:58;100033.28;;;7.21;85.99
17615;BME280;8926;49.720;6.576;2023-12-20T11:38:25;100028.31;;;7.15;85.21
17615;BME280;8926;49.720;6.576;2023-12-20T11:40:53;100041.97;;;7.20;85.87
17615;BME280;8926;49.720;6.576;2023-12-20T11:43:35;100037.19;;;7.09;86.01
17615;BME280;8926;49.720;6.576;2023-12-20T11:46:05;100035.66;;;7.04;86.12
17615;BME280;8926;49.720;6.576;2023-12-20T11:48:36;100036.50;;;7.04;86.81
17615;BME280;8926;49.720;6.576;2023-12-20T11:51:02;100034.47;;;7.12;87.05
17615;BME280;8926;49.720;6.576;2023-12-20T11:53:29;100036.06;;;7.17;86.19
17615;BME280;8926;49.720;6.576;2023-12-20T11:55:55;100044.81;;;7.14;85.50
17615;BME280;8926;49.720;6.576;2023-12-20T11:58:21;100050.06;;;7.12;86.39
17615;BME280;8926;49.720;6.576;2023-12-20T12:00:49;100045.59;;;7.16;86.26
17615;BME280;8926;49.720;6.576;2023-12-20T12:03:15;100040.41;;;7.16;86.09
17615;BME280;8926;49.720;6.576;2023-12-20T12:05:41;100033.47;;;7.17;86.32
17615;BME280;8926;49.720;6.576;2023-12-20T12:08:06;100028.09;;;7.21;85.81
17615;BME280;8926;49.720;6.576;2023-12-20T12:10:32;100027.97;;;7.24;86.14
17615;BME280;8926;49.720;6.576;2023-12-20T12:12:58;100022.78;;;7.24;86.01
17615;BME280;8926;49.720;6.576;2023-12-20T12:15:23;100027.19;;;7.22;85.99
17615;BME280;8926;49.720;6.576;2023-12-20T12:17:55;100022.91;;;7.21;86.07
17615;BME280;8926;49.720;6.576;2023-12-20T12:20:22;100019.38;;;7.22;86.47
17615;BME280;8926;49.720;6.576;2023-12-20T12:23:08;100019.13;;;7.28;86.63
17615;BME280;8926;49.720;6.576;2023-12-20T12:25:35;100013.81;;;7.31;86.29
17615;BME280;8926;49.720;6.576;2023-12-20T12:28:02;100006.94;;;7.30;87.08
17615;BME280;8926;49.720;6.576;2023-12-20T12:30:28;100001.38;;;7.39;87.02
17615;BME280;8926;49.720;6.576;2023-12-20T12:32:53;99999.00;;;7.33;86.55
17615;BME280;8926;49.720;6.576;2023-12-20T12:35:19;99992.00;;;7.35;86.50
17615;BME280;8926;49.720;6.576;2023-12-20T12:37:45;99980.69;;;7.36;86.33
17615;BME280;8926;49.720;6.576;2023-12-20T12:40:15;99981.56;;;7.37;86.31
17615;BME280;8926;49.720;6.576;2023-12-20T12:42:42;99986.03;;;7.33;86.15
17615;BME280;8926;49.720;6.576;2023-12-20T12:45:08;99978.28;;;7.32;86.24
17615;BME280;8926;49.720;6.576;2023-12-20T12:47:34;99979.25;;;7.29;86.61
17615;BME280;8926;49.720;6.576;2023-12-20T12:50:00;99974.31;;;7.23;86.18
17615;BME280;8926;49.720;6.576;2023-12-20T12:52:25;99983.13;;;7.19;87.13
17615;BME280;8926;49.720;6.576;2023-12-20T12:54:52;99978.56;;;7.26;87.32
17615;BME280;8926;49.720;6.576;2023-12-20T12:57:17;99982.75;;;7.28;86.81
17615;BME280;8926;49.720;6.576;2023-12-20T12:59:44;99978.34;;;7.30;87.19
17615;BME280;8926;49.720;6.576;2023-12-20T13:02:11;99967.03;;;7.31;86.67
17615;BME280;8926;49.720;6.576;2023-12-20T13:04:36;99971.44;;;7.29;87.03
17615;BME280;8926;49.720;6.576;2023-12-20T13:07:02;99963.94;;;7.23;87.27
17615;BME280;8926;49.720;6.576;2023-12-20T13:09:27;99955.16;;;7.26;87.09